createdAt,value
2023-05-02T00:01:19.229Z,20.30
2023-05-02T00:03:46.191Z,20.29
2023-05-02T00:06:13.299Z,20.30
2023-05-02T00:08:40.396Z,20.28
2023-05-02T00:11:09.937Z,20.29
2023-05-02T00:13:43.335Z,20.27
2023-05-02T00:16:10.171Z,20.27
2023-05-02T00:18:40.976Z,20.28
2023-05-02T00:21:10.704Z,20.25
2023-05-02T00:23:37.400Z,20.25
2023-05-02T00:26:12.536Z,20.25
2023-05-02T00:28:39.371Z,20.26
2023-05-02T00:31:08.674Z,20.24
2023-05-02T00:33:38.645Z,20.23
2023-05-02T00:36:07.358Z,20.23
2023-05-02T00:38:37.444Z,20.22
2023-05-02T00:41:04.415Z,20.22
2023-05-02T00:43:36.889Z,20.21
2023-05-02T00:46:03.945Z,20.21
2023-05-02T00:48:30.853Z,20.20
2023-05-02T00:51:00.573Z,20.20
2023-05-02T00:53:27.319Z,20.20
2023-05-02T00:55:54.252Z,20.19
2023-05-02T00:58:24.149Z,20.18
2023-05-02T01:00:57.001Z,20.19
2023-05-02T01:03:36.543Z,20.20
2023-05-02T01:06:09.620Z,20.17
2023-05-02T01:09:14.790Z,20.18
2023-05-02T01:12:00.206Z,20.18
2023-05-02T01:14:33.438Z,20.18
2023-05-02T01:17:03.373Z,20.16
2023-05-02T01:19:33.203Z,20.16
2023-05-02T01:22:03.930Z,20.15
2023-05-02T01:24:42.318Z,20.13
2023-05-02T01:27:16.238Z,20.13
2023-05-02T01:29:45.430Z,20.13
2023-05-02T01:32:16.401Z,20.10
2023-05-02T01:34:44.965Z,20.10
2023-05-02T01:37:12.883Z,20.10
2023-05-02T01:39:42.820Z,20.12
2023-05-02T01:42:11.889Z,20.10
2023-05-02T01:44:43.911Z,20.11
2023-05-02T01:47:15.492Z,20.10
2023-05-02T01:49:45.651Z,20.10
2023-05-02T01:52:16.666Z,20.09
2023-05-02T01:54:43.965Z,20.09
2023-05-02T01:57:15.591Z,20.08
2023-05-02T01:59:44.116Z,20.06
2023-05-02T02:02:13.008Z,20.08
2023-05-02T02:04:40.876Z,20.07
2023-05-02T02:07:11.377Z,20.09
2023-05-02T02:09:41.437Z,20.06
2023-05-02T02:12:17.662Z,20.07
2023-05-02T02:14:48.594Z,20.06
2023-05-02T02:17:25.725Z,20.08
2023-05-02T02:20:01.961Z,20.06
2023-05-02T02:22:30.313Z,20.06
2023-05-02T02:25:03.863Z,20.05
2023-05-02T02:27:31.082Z,20.04
2023-05-02T02:30:01.116Z,20.05
2023-05-02T02:32:28.515Z,20.05
2023-05-02T02:34:58.854Z,20.04
2023-05-02T02:37:41.183Z,20.05
2023-05-02T02:40:14.341Z,20.03
2023-05-02T02:42:52.196Z,20.03
2023-05-02T02:45:31.388Z,20.04
2023-05-02T02:48:15.863Z,20.04
2023-05-02T02:51:04.213Z,20.02
2023-05-02T02:53:37.385Z,20.03
2023-05-02T02:56:18.488Z,20.03
2023-05-02T02:58:48.184Z,20.02
2023-05-02T03:01:20.618Z,20.00
2023-05-02T03:03:51.414Z,20.00
2023-05-02T03:06:21.618Z,20.00
2023-05-02T03:08:52.180Z,20.01
2023-05-02T03:11:22.150Z,19.98
2023-05-02T03:13:52.015Z,19.98
2023-05-02T03:16:22.211Z,19.98
2023-05-02T03:18:51.721Z,19.97
2023-05-02T03:21:21.352Z,19.98
2023-05-02T03:23:51.096Z,19.97
2023-05-02T03:26:17.959Z,19.96
2023-05-02T03:28:49.700Z,19.96
2023-05-02T03:31:19.871Z,19.96
2023-05-02T03:33:46.777Z,19.95
2023-05-02T03:36:17.052Z,19.96
2023-05-02T03:38:50.173Z,19.93
2023-05-02T03:41:17.031Z,19.95
2023-05-02T03:43:47.209Z,19.95
2023-05-02T03:46:16.924Z,19.94
2023-05-02T03:48:43.809Z,19.93
2023-05-02T03:51:13.857Z,19.94
2023-05-02T03:53:43.739Z,19.92
2023-05-02T03:56:10.750Z,19.91
2023-05-02T03:58:40.379Z,19.90
2023-05-02T04:01:16.390Z,19.88
2023-05-02T04:03:44.054Z,19.88
2023-05-02T04:06:13.594Z,19.88
2023-05-02T04:08:40.585Z,19.92
2023-05-02T04:11:10.913Z,19.95
2023-05-02T04:13:43.305Z,19.96
2023-05-02T04:16:11.553Z,19.97
2023-05-02T04:18:41.442Z,19.98
2023-05-02T04:21:10.816Z,20.06
2023-05-02T04:23:37.548Z,20.09
2023-05-02T04:26:07.188Z,20.10
2023-05-02T04:28:38.485Z,20.13
2023-05-02T04:31:09.592Z,20.17
2023-05-02T04:33:36.773Z,20.18
2023-05-02T04:36:03.855Z,20.25
2023-05-02T04:38:33.017Z,20.24
2023-05-02T04:41:08.675Z,20.27
2023-05-02T04:43:39.136Z,20.25
2023-05-02T04:46:09.066Z,20.31
2023-05-02T04:48:35.644Z,20.32
2023-05-02T04:51:03.149Z,20.31
2023-05-02T04:53:34.626Z,20.29
2023-05-02T04:56:04.309Z,20.35
2023-05-02T04:58:31.617Z,20.39
2023-05-02T05:00:58.431Z,20.39
2023-05-02T05:03:25.178Z,20.38
2023-05-02T05:05:55.398Z,20.38
2023-05-02T05:08:25.047Z,20.37
2023-05-02T05:10:52.107Z,20.30
2023-05-02T05:13:22.139Z,20.26
2023-05-02T05:15:49.080Z,20.24
2023-05-02T05:18:19.073Z,20.18
2023-05-02T05:20:45.885Z,20.16
2023-05-02T05:23:15.787Z,20.17
2023-05-02T05:25:49.220Z,20.23
2023-05-02T05:28:16.592Z,20.26
2023-05-02T05:30:53.383Z,20.26
2023-05-02T05:33:21.172Z,20.31
2023-05-02T05:35:48.602Z,20.32
2023-05-02T05:38:19.330Z,20.36
2023-05-02T05:40:50.606Z,20.35
2023-05-02T05:43:22.419Z,20.34
2023-05-02T05:45:52.019Z,20.28
2023-05-02T05:48:22.027Z,20.21
2023-05-02T05:50:49.625Z,20.10
2023-05-02T05:53:16.735Z,20.00
2023-05-02T05:55:48.017Z,19.95
2023-05-02T05:58:17.277Z,19.85
2023-05-02T06:00:44.416Z,19.76
2023-05-02T06:03:11.794Z,19.76
2023-05-02T06:05:38.997Z,19.73
2023-05-02T06:08:12.221Z,19.64
2023-05-02T06:10:42.188Z,19.65
2023-05-02T06:13:12.168Z,19.59
2023-05-02T06:15:41.510Z,19.57
2023-05-02T06:18:08.842Z,19.59
2023-05-02T06:20:42.013Z,19.66
2023-05-02T06:23:14.224Z,19.69
2023-05-02T06:25:50.765Z,19.74
2023-05-02T06:28:25.053Z,19.77
2023-05-02T06:31:02.152Z,19.82
2023-05-02T06:33:30.258Z,19.87
2023-05-02T06:36:01.706Z,19.91
2023-05-02T06:38:33.895Z,19.94
2023-05-02T06:41:04.142Z,19.97
2023-05-02T06:43:34.105Z,19.99
2023-05-02T06:46:07.437Z,20.02
2023-05-02T06:48:39.300Z,20.02
2023-05-02T06:51:06.393Z,20.05
2023-05-02T06:53:34.377Z,20.08
2023-05-02T06:56:01.601Z,20.07
2023-05-02T06:58:30.041Z,20.07
2023-05-02T07:00:57.204Z,20.07
2023-05-02T07:03:25.906Z,20.09
2023-05-02T07:05:53.382Z,20.11
2023-05-02T07:08:22.582Z,20.13
2023-05-02T07:10:50.745Z,20.17
2023-05-02T07:13:21.304Z,20.17
2023-05-02T07:15:51.121Z,20.15
2023-05-02T07:18:21.158Z,20.12
2023-05-02T07:20:51.442Z,20.15
2023-05-02T07:23:22.150Z,20.15
2023-05-02T07:25:49.245Z,20.16
2023-05-02T07:28:21.351Z,20.18
2023-05-02T07:30:48.078Z,20.15
2023-05-02T07:33:15.363Z,20.16
2023-05-02T07:35:44.825Z,20.16
2023-05-02T07:38:14.131Z,20.14
2023-05-02T07:40:43.873Z,20.14
2023-05-02T07:43:14.520Z,20.16
2023-05-02T07:45:44.676Z,20.15
2023-05-02T07:48:12.000Z,20.13
2023-05-02T07:50:41.634Z,20.13
2023-05-02T07:53:08.390Z,20.11
2023-05-02T07:55:35.164Z,20.11
2023-05-02T07:58:01.759Z,20.10
2023-05-02T08:00:29.117Z,20.12
2023-05-02T08:03:01.613Z,20.11
2023-05-02T08:05:28.438Z,20.11
2023-05-02T08:08:01.236Z,20.11
2023-05-02T08:10:27.934Z,20.09
2023-05-02T08:12:57.788Z,20.10
2023-05-02T08:15:27.774Z,20.11
2023-05-02T08:17:57.587Z,20.08
2023-05-02T08:20:27.467Z,20.09
2023-05-02T08:22:59.885Z,20.08
2023-05-02T08:25:32.737Z,20.08
2023-05-02T08:27:59.883Z,20.08
2023-05-02T08:30:27.042Z,20.07
2023-05-02T08:32:57.558Z,20.10
2023-05-02T08:35:29.504Z,20.10
2023-05-02T08:38:02.916Z,20.07
2023-05-02T08:40:42.067Z,20.07
2023-05-02T08:43:10.964Z,20.10
2023-05-02T08:45:42.070Z,20.10
2023-05-02T08:48:12.437Z,20.09
2023-05-02T08:50:43.673Z,20.09
2023-05-02T08:53:14.599Z,20.08
2023-05-02T08:55:48.994Z,20.08
2023-05-02T08:58:20.648Z,20.09
2023-05-02T09:00:51.460Z,20.07
2023-05-02T09:03:27.342Z,20.09
2023-05-02T09:06:04.102Z,20.10
2023-05-02T09:08:31.439Z,20.08
2023-05-02T09:10:58.587Z,20.06
2023-05-02T09:13:45.446Z,20.05
2023-05-02T09:16:16.731Z,20.06
2023-05-02T09:18:49.039Z,20.07
2023-05-02T09:21:19.723Z,20.07
2023-05-02T09:23:57.571Z,20.07
2023-05-02T09:26:25.744Z,20.07
2023-05-02T09:28:53.942Z,20.07
2023-05-02T09:31:43.646Z,20.07
2023-05-02T09:34:15.246Z,20.06
2023-05-02T09:36:51.413Z,20.08
2023-05-02T09:39:19.155Z,20.08
2023-05-02T09:41:49.667Z,20.10
2023-05-02T09:44:20.040Z,20.07
2023-05-02T09:46:53.995Z,20.07
2023-05-02T09:49:40.523Z,20.08
2023-05-02T09:52:15.964Z,20.08
2023-05-02T09:54:42.963Z,20.06
2023-05-02T09:57:13.010Z,20.06
2023-05-02T09:59:39.914Z,20.07
2023-05-02T10:02:07.290Z,20.08
2023-05-02T10:04:34.745Z,20.09
2023-05-02T10:07:02.437Z,20.11
2023-05-02T10:09:30.593Z,20.11
2023-05-02T10:11:57.308Z,20.14
2023-05-02T10:14:31.178Z,20.13
2023-05-02T10:17:02.494Z,20.13
2023-05-02T10:19:38.650Z,20.13
2023-05-02T10:22:12.679Z,20.12
2023-05-02T10:24:47.328Z,20.14
2023-05-02T10:27:15.377Z,20.16
2023-05-02T10:29:52.149Z,20.15
2023-05-02T10:32:19.414Z,20.18
2023-05-02T10:34:52.108Z,20.19
2023-05-02T10:37:21.281Z,20.19
2023-05-02T10:39:51.410Z,20.22
2023-05-02T10:42:22.589Z,20.21
2023-05-02T10:44:52.350Z,20.22
2023-05-02T10:47:25.927Z,20.21
2023-05-02T10:49:55.862Z,20.21
2023-05-02T10:52:26.831Z,20.21
2023-05-02T10:55:13.496Z,20.20
2023-05-02T10:58:02.217Z,20.19
2023-05-02T11:00:33.409Z,20.20
2023-05-02T11:03:04.235Z,20.20
2023-05-02T11:05:32.074Z,20.21
2023-05-02T11:08:19.379Z,20.21
2023-05-02T11:10:52.070Z,20.21
2023-05-02T11:13:42.311Z,20.22
2023-05-02T11:16:09.760Z,20.22
2023-05-02T11:18:55.846Z,20.23
2023-05-02T11:21:27.964Z,20.23
2023-05-02T11:24:15.117Z,20.23
2023-05-02T11:26:45.306Z,20.23
2023-05-02T11:29:16.194Z,20.24
2023-05-02T11:31:52.593Z,20.23
2023-05-02T11:34:20.075Z,20.24
2023-05-02T11:36:47.980Z,20.25
2023-05-02T11:39:24.625Z,20.25
2023-05-02T11:41:57.719Z,20.23
2023-05-02T11:44:27.699Z,20.28
2023-05-02T11:46:57.790Z,20.27
2023-05-02T11:49:28.025Z,20.27
2023-05-02T11:51:57.599Z,20.27
2023-05-02T11:54:25.855Z,20.28
2023-05-02T11:56:57.867Z,20.27
2023-05-02T11:59:27.166Z,20.28
2023-05-02T12:01:54.261Z,20.28
2023-05-02T12:04:21.057Z,20.27
2023-05-02T12:06:57.380Z,20.28
2023-05-02T12:09:24.997Z,20.28
2023-05-02T12:11:55.174Z,20.30
2023-05-02T12:14:28.686Z,20.32
2023-05-02T12:16:56.775Z,20.32
2023-05-02T12:19:27.601Z,20.32
2023-05-02T12:21:58.011Z,20.32
2023-05-02T12:24:31.291Z,20.34
2023-05-02T12:27:10.121Z,20.34
2023-05-02T12:29:44.818Z,20.33
2023-05-02T12:32:15.560Z,20.34
2023-05-02T12:34:43.110Z,20.33
2023-05-02T12:37:09.961Z,20.34
2023-05-02T12:39:38.606Z,20.32
2023-05-02T12:42:11.137Z,20.31
2023-05-02T12:44:39.749Z,20.32
2023-05-02T12:47:06.757Z,20.31
2023-05-02T12:49:36.669Z,20.32
2023-05-02T12:52:04.051Z,20.33
2023-05-02T12:54:30.829Z,20.33
2023-05-02T12:57:00.563Z,20.33
2023-05-02T12:59:31.337Z,20.33
2023-05-02T13:02:01.421Z,20.34
2023-05-02T13:04:40.260Z,20.34
2023-05-02T13:07:07.470Z,20.34
2023-05-02T13:09:40.825Z,20.35
2023-05-02T13:12:07.668Z,20.37
2023-05-02T13:14:37.258Z,20.37
2023-05-02T13:17:07.484Z,20.39
2023-05-02T13:19:34.917Z,20.39
2023-05-02T13:22:01.755Z,20.39
2023-05-02T13:24:28.472Z,20.40
2023-05-02T13:26:55.258Z,20.39
2023-05-02T13:29:22.053Z,20.39
2023-05-02T13:31:49.682Z,20.39
2023-05-02T13:34:16.620Z,20.38
2023-05-02T13:36:43.569Z,20.36
2023-05-02T13:39:10.697Z,20.36
2023-05-02T13:41:37.893Z,20.38
2023-05-02T13:44:04.914Z,20.37
2023-05-02T13:46:31.726Z,20.40
2023-05-02T13:48:58.506Z,20.41
2023-05-02T13:51:25.184Z,20.42
2023-05-02T13:53:56.220Z,20.43
2023-05-02T13:56:23.313Z,20.45
2023-05-02T13:58:50.372Z,20.44
2023-05-02T14:01:17.494Z,20.43
2023-05-02T14:03:45.337Z,20.44
2023-05-02T14:06:15.907Z,20.43
2023-05-02T14:08:43.869Z,20.45
2023-05-02T14:11:14.462Z,20.46
2023-05-02T14:13:44.857Z,20.46
2023-05-02T14:16:12.120Z,20.47
2023-05-02T14:18:39.662Z,20.48
2023-05-02T14:21:07.123Z,20.49
2023-05-02T14:23:34.974Z,20.51
2023-05-02T14:26:02.399Z,20.51
2023-05-02T14:28:34.614Z,20.53
2023-05-02T14:31:05.521Z,20.55
2023-05-02T14:33:33.408Z,20.56
2023-05-02T14:36:03.269Z,20.57
2023-05-02T14:38:33.120Z,20.54
2023-05-02T14:41:02.984Z,20.53
2023-05-02T14:43:29.729Z,20.56
2023-05-02T14:45:56.496Z,20.58
2023-05-02T14:48:23.239Z,20.57
2023-05-02T14:50:54.720Z,20.57
2023-05-02T14:53:23.918Z,20.61
2023-05-02T14:55:54.005Z,20.65
2023-05-02T14:58:23.453Z,20.64
2023-05-02T15:00:54.608Z,20.64
2023-05-02T15:03:22.488Z,20.68
2023-05-02T15:05:50.225Z,20.69
2023-05-02T15:08:17.377Z,20.72
2023-05-02T15:10:48.639Z,20.71
2023-05-02T15:13:18.852Z,20.75
2023-05-02T15:15:47.310Z,20.76
2023-05-02T15:18:17.467Z,20.68
2023-05-02T15:20:47.579Z,20.72
2023-05-02T15:23:15.080Z,20.75
2023-05-02T15:25:45.242Z,20.77
2023-05-02T15:28:15.724Z,20.73
2023-05-02T15:30:43.813Z,20.75
2023-05-02T15:33:11.441Z,20.78
2023-05-02T15:35:46.229Z,20.76
2023-05-02T15:38:17.235Z,20.76
2023-05-02T15:40:44.535Z,20.75
2023-05-02T15:43:15.039Z,20.71
2023-05-02T15:45:46.364Z,20.73
2023-05-02T15:48:13.219Z,20.80
2023-05-02T15:50:43.578Z,20.83
2023-05-02T15:53:20.898Z,20.84
2023-05-02T15:55:55.539Z,20.84
2023-05-02T15:58:28.562Z,20.85
2023-05-02T16:01:01.041Z,20.83
2023-05-02T16:03:34.216Z,20.86
2023-05-02T16:06:08.233Z,20.84
2023-05-02T16:08:38.088Z,20.81
2023-05-02T16:11:08.213Z,20.83
2023-05-02T16:13:35.090Z,20.80
2023-05-02T16:16:05.455Z,20.81
2023-05-02T16:18:33.862Z,20.76
2023-05-02T16:21:01.588Z,20.76
2023-05-02T16:23:30.972Z,20.78
2023-05-02T16:26:01.176Z,20.75
2023-05-02T16:28:27.847Z,20.76
2023-05-02T16:30:56.914Z,20.77
2023-05-02T16:33:24.786Z,20.71
2023-05-02T16:36:00.975Z,20.77
2023-05-02T16:38:33.161Z,20.79
2023-05-02T16:41:03.819Z,20.80
2023-05-02T16:43:30.500Z,20.85
2023-05-02T16:46:06.932Z,20.86
2023-05-02T16:48:34.733Z,20.88
2023-05-02T16:51:04.879Z,20.76
2023-05-02T16:53:38.375Z,20.73
2023-05-02T16:56:07.625Z,20.72
2023-05-02T16:58:34.484Z,20.69
2023-05-02T17:01:05.051Z,20.63
2023-05-02T17:03:37.740Z,20.65
2023-05-02T17:06:06.563Z,20.63
2023-05-02T17:08:33.774Z,20.64
2023-05-02T17:11:00.682Z,20.63
2023-05-02T17:13:27.590Z,20.61
2023-05-02T17:15:57.438Z,20.58
2023-05-02T17:18:24.832Z,20.58
2023-05-02T17:20:52.084Z,20.64
2023-05-02T17:23:19.357Z,20.63
2023-05-02T17:25:49.754Z,20.65
2023-05-02T17:28:17.246Z,20.67
2023-05-02T17:30:47.493Z,20.68
2023-05-02T17:33:16.197Z,20.68
2023-05-02T17:35:42.980Z,20.67
2023-05-02T17:38:10.101Z,20.69
2023-05-02T17:40:38.010Z,20.69
2023-05-02T17:43:05.234Z,20.71
2023-05-02T17:45:31.967Z,20.74
2023-05-02T17:47:59.485Z,20.76
2023-05-02T17:50:29.375Z,20.78
2023-05-02T17:52:59.431Z,20.82
2023-05-02T17:55:26.990Z,20.84
2023-05-02T17:57:57.421Z,20.83
2023-05-02T18:00:27.772Z,20.88
2023-05-02T18:02:58.428Z,20.87
2023-05-02T18:05:29.818Z,20.90
2023-05-02T18:08:01.339Z,20.91
2023-05-02T18:10:36.476Z,20.87
2023-05-02T18:13:03.950Z,20.85
2023-05-02T18:15:31.119Z,20.84
2023-05-02T18:18:01.648Z,20.84
2023-05-02T18:20:29.102Z,20.81
2023-05-02T18:23:02.426Z,20.82
2023-05-02T18:25:31.605Z,20.83
2023-05-02T18:27:58.980Z,20.80
2023-05-02T18:30:26.135Z,20.79
2023-05-02T18:32:58.197Z,20.79
2023-05-02T18:35:25.230Z,20.74
2023-05-02T18:37:52.570Z,20.75
2023-05-02T18:40:23.558Z,20.77
2023-05-02T18:42:54.340Z,20.75
2023-05-02T18:45:22.008Z,20.75
2023-05-02T18:47:52.127Z,20.70
2023-05-02T18:50:19.273Z,20.71
2023-05-02T18:52:56.427Z,20.73
2023-05-02T18:55:30.357Z,20.76
2023-05-02T18:58:00.125Z,20.80
2023-05-02T19:00:28.353Z,20.78
2023-05-02T19:02:55.578Z,20.78
2023-05-02T19:05:29.066Z,20.81
2023-05-02T19:08:00.537Z,20.80
2023-05-02T19:10:27.869Z,20.75
2023-05-02T19:12:55.206Z,20.79
2023-05-02T19:15:22.064Z,20.84
2023-05-02T19:17:50.660Z,20.82
2023-05-02T19:20:17.854Z,20.82
2023-05-02T19:22:48.073Z,20.73
2023-05-02T19:25:16.476Z,20.81
2023-05-02T19:27:49.589Z,20.80
2023-05-02T19:30:16.912Z,20.80
2023-05-02T19:32:44.345Z,20.75
2023-05-02T19:35:11.770Z,20.76
2023-05-02T19:37:42.072Z,20.75
2023-05-02T19:40:11.722Z,20.76
2023-05-02T19:42:42.122Z,20.74
2023-05-02T19:45:12.884Z,20.74
2023-05-02T19:47:43.373Z,20.72
2023-05-02T19:50:13.908Z,20.70
2023-05-02T19:52:43.688Z,20.68
2023-05-02T19:55:17.556Z,20.70
2023-05-02T19:57:46.094Z,20.68
2023-05-02T20:00:15.969Z,20.66
2023-05-02T20:02:46.504Z,20.65
2023-05-02T20:05:14.854Z,20.64
2023-05-02T20:07:42.033Z,20.64
2023-05-02T20:10:09.676Z,20.63
2023-05-02T20:12:37.963Z,20.61
2023-05-02T20:15:07.699Z,20.61
2023-05-02T20:17:35.303Z,20.60
2023-05-02T20:20:05.467Z,20.59
2023-05-02T20:22:32.554Z,20.57
2023-05-02T20:25:00.256Z,20.57
2023-05-02T20:27:27.787Z,20.51
2023-05-02T20:29:57.396Z,20.51
2023-05-02T20:32:27.298Z,20.55
2023-05-02T20:34:54.495Z,20.52
2023-05-02T20:37:27.720Z,20.54
2023-05-02T20:40:00.490Z,20.52
2023-05-02T20:42:30.899Z,20.51
2023-05-02T20:44:58.578Z,20.47
2023-05-02T20:47:34.903Z,20.52
2023-05-02T20:50:02.613Z,20.51
2023-05-02T20:52:30.268Z,20.46
2023-05-02T20:54:57.600Z,20.46
2023-05-02T20:57:24.871Z,20.45
2023-05-02T20:59:55.397Z,20.44
2023-05-02T21:02:25.968Z,20.45
2023-05-02T21:04:53.453Z,20.44
2023-05-02T21:07:20.559Z,20.43
2023-05-02T21:09:51.342Z,20.43
2023-05-02T21:12:18.512Z,20.45
2023-05-02T21:14:45.704Z,20.42
2023-05-02T21:17:16.412Z,20.42
2023-05-02T21:19:43.590Z,20.41
2023-05-02T21:22:13.957Z,20.41
2023-05-02T21:24:46.127Z,20.40
2023-05-02T21:27:16.331Z,20.38
2023-05-02T21:29:43.947Z,20.39
2023-05-02T21:32:17.751Z,20.39
2023-05-02T21:34:44.883Z,20.37
2023-05-02T21:37:13.771Z,20.37
2023-05-02T21:39:40.837Z,20.37
2023-05-02T21:42:08.753Z,20.35
2023-05-02T21:44:38.897Z,20.37
2023-05-02T21:47:10.441Z,20.34
2023-05-02T21:49:37.589Z,20.35
2023-05-02T21:52:07.679Z,20.34
2023-05-02T21:54:37.728Z,20.34
2023-05-02T21:57:09.864Z,20.34
2023-05-02T21:59:37.120Z,20.34
2023-05-02T22:02:04.185Z,20.33
2023-05-02T22:04:34.306Z,20.32
2023-05-02T22:07:02.483Z,20.32
2023-05-02T22:09:33.641Z,20.30
2023-05-02T22:12:04.708Z,20.29
2023-05-02T22:14:41.783Z,20.30
2023-05-02T22:17:13.041Z,20.29
2023-05-02T22:19:43.716Z,20.29
2023-05-02T22:22:13.715Z,20.28
2023-05-02T22:24:41.652Z,20.28
2023-05-02T22:27:11.338Z,20.27
2023-05-02T22:29:38.377Z,20.27
2023-05-02T22:32:09.189Z,20.27
2023-05-02T22:34:38.898Z,20.28
2023-05-02T22:37:06.435Z,20.26
2023-05-02T22:39:37.271Z,20.26
2023-05-02T22:42:07.145Z,20.25
2023-05-02T22:44:50.653Z,20.25
2023-05-02T22:47:21.249Z,20.25
2023-05-02T22:49:50.024Z,20.25
2023-05-02T22:52:17.488Z,20.25
2023-05-02T22:54:46.583Z,20.23
2023-05-02T22:57:17.360Z,20.24
2023-05-02T22:59:44.832Z,20.25
2023-05-02T23:02:15.025Z,20.22
2023-05-02T23:04:42.713Z,20.22
2023-05-02T23:07:09.879Z,20.23
2023-05-02T23:09:37.274Z,20.22
2023-05-02T23:12:07.472Z,20.21
2023-05-02T23:14:37.361Z,20.22
2023-05-02T23:17:04.630Z,20.20
2023-05-02T23:19:34.053Z,20.21
2023-05-02T23:22:04.210Z,20.20
2023-05-02T23:24:32.517Z,20.20
2023-05-02T23:26:59.653Z,20.19
2023-05-02T23:29:26.841Z,20.19
2023-05-02T23:31:54.062Z,20.18
2023-05-02T23:34:24.082Z,20.17
2023-05-02T23:36:54.938Z,20.16
2023-05-02T23:39:22.199Z,20.17
2023-05-02T23:41:49.852Z,20.15
2023-05-02T23:44:17.345Z,20.16
2023-05-02T23:46:48.028Z,20.16
2023-05-02T23:49:15.281Z,20.14
2023-05-02T23:51:46.180Z,20.15
2023-05-02T23:54:13.562Z,20.15
2023-05-02T23:56:41.448Z,20.15
2023-05-02T23:59:08.767Z,20.15
